Time;durP1;ratioP1;P1;durP2;ratioP2;P2;SDS_P1;SDS_P2;PMS_P1;PMS_P2;Temp;Humidity;BMP_temperature;BMP_pressure;BME280_temperature;BME280_humidity;BME280_pressure;Samples;Min_cycle;Max_cycle;Signal;HPM_P1;HPM_P2
2022/01/20 00:02:10;;;;;;;9.13;4.55;;;;;;;;;;5043730;28;20051;-79
2022/01/20 00:04:51;;;;;;;5.18;4.22;;;;;;;;;;5009833;28;20076;-79
2022/01/20 00:26:23;;;;;;;;;;;;;;;;;;5027075;28;20101;-78
2022/01/20 00:28:51;;;;;;;4.93;3.30;;;;;;;;;;5026647;28;20421;-80
2022/01/20 00:39:00;;;;;;;5.25;3.50;;;;;;;;;;5048384;28;21682;-79
2022/01/20 00:41:26;;;;;;;5.55;3.90;;;;;;;;;;5048919;28;20040;-79
2022/01/20 00:43:51;;;;;;;6.20;4.18;;;;;;;;;;5059926;28;20036;-77
2022/01/20 00:46:16;;;;;;;6.78;4.50;;;;;;;;;;5013397;28;20035;-79
2022/01/20 00:48:42;;;;;;;5.35;3.97;;;;;;;;;;5015756;28;20057;-78
2022/01/20 00:51:08;;;;;;;5.38;3.60;;;;;;;;;;5013445;28;20167;-78
2022/01/20 00:53:34;;;;;;;5.28;3.85;;;;;;;;;;5031355;28;20111;-79
2022/01/20 00:55:59;;;;;;;5.03;3.70;;;;;;;;;;4997643;28;20189;-79
2022/01/20 00:58:24;;;;;;;6.65;4.28;;;;;;;;;;5049734;28;20031;-79
2022/01/20 01:00:50;;;;;;;7.82;4.57;;;;;;;;;;5045621;28;20123;-78
2022/01/20 01:03:15;;;;;;;4.72;4.00;;;;;;;;;;5030929;28;20493;-78
2022/01/20 01:05:55;;;;;;;6.88;4.28;;;;;;;;;;5045273;28;20083;-79
2022/01/20 01:08:20;;;;;;;5.43;3.85;;;;;;;;;;5032010;28;20037;-79
2022/01/20 01:10:49;;;;;;;6.05;3.92;;;;;;;;;;5028976;28;20029;-78
2022/01/20 01:13:16;;;;;;;5.22;3.95;;;;;;;;;;5032502;28;20039;-78
2022/01/20 01:15:46;;;;;;;5.93;3.97;;;;;;;;;;5029981;28;20060;-79
2022/01/20 01:23:31;;;;;;;6.60;4.38;;;;;;;;;;5014282;28;20581;-78
2022/01/20 01:25:57;;;;;;;7.57;3.72;;;;;;;;;;5047497;28;20038;-78
2022/01/20 01:28:25;;;;;;;5.65;3.85;;;;;;;;;;5041221;28;20064;-78
2022/01/20 01:33:38;;;;;;;;;;;;;;;;;;5019153;28;20066;-80
2022/01/20 01:36:05;;;;;;;6.82;3.88;;;;;;;;;;5030213;28;19918;-79
2022/01/20 01:38:36;;;;;;;6.30;4.05;;;;;;;;;;5028720;28;20035;-79
2022/01/20 01:41:17;;;;;;;6.05;3.90;;;;;;;;;;5014589;28;20051;-78
2022/01/20 01:43:45;;;;;;;5.80;4.00;;;;;;;;;;5026119;28;20035;-78
2022/01/20 01:46:11;;;;;;;7.25;4.07;;;;;;;;;;5057406;28;20047;-78
2022/01/20 01:48:38;;;;;;;7.05;3.88;;;;;;;;;;5039860;28;20479;-78
2022/01/20 01:51:03;;;;;;;7.85;4.60;;;;;;;;;;5059086;28;20052;-79
2022/01/20 01:53:28;;;;;;;6.05;4.22;;;;;;;;;;5011736;28;20683;-79
2022/01/20 01:55:54;;;;;;;5.50;3.63;;;;;;;;;;5028363;28;20060;-78
2022/01/20 01:58:19;;;;;;;7.88;4.47;;;;;;;;;;5010860;28;20174;-78
2022/01/20 02:00:45;;;;;;;5.40;4.30;;;;;;;;;;5010868;28;20128;-80
2022/01/20 02:03:12;;;;;;;4.43;3.22;;;;;;;;;;5029136;28;20543;-80
2022/01/20 02:05:50;;;;;;;4.68;3.53;;;;;;;;;;5046965;28;20471;-78
2022/01/20 02:19:11;;;;;;;5.75;3.90;;;;;;;;;;5033309;28;20023;-79
2022/01/20 02:21:53;;;;;;;6.55;4.30;;;;;;;;;;5029051;28;20024;-79
2022/01/20 02:24:18;;;;;;;6.15;4.18;;;;;;;;;;5057280;28;20029;-79
2022/01/20 02:26:44;;;;;;;6.25;4.10;;;;;;;;;;5028711;28;20033;-78
2022/01/20 02:29:09;;;;;;;5.50;3.85;;;;;;;;;;5011821;28;20024;-80
2022/01/20 02:31:35;;;;;;;5.75;4.07;;;;;;;;;;5010957;28;20048;-79
2022/01/20 02:34:00;;;;;;;5.93;3.95;;;;;;;;;;5039386;28;20123;-80
2022/01/20 02:36:27;;;;;;;4.78;3.47;;;;;;;;;;5011480;28;20084;-78
2022/01/20 02:39:00;;;;;;;7.55;4.35;;;;;;;;;;5028283;28;20763;-78
2022/01/20 02:47:10;;;;;;;4.50;3.90;;;;;;;;;;4984515;28;20769;-80
2022/01/20 02:49:35;;;;;;;12.75;4.10;;;;;;;;;;5034281;28;20071;-81
2022/01/20 02:52:01;;;;;;;5.80;3.78;;;;;;;;;;5045759;28;20108;-78
2022/01/20 02:54:26;;;;;;;6.13;3.88;;;;;;;;;;5045878;28;20637;-78
2022/01/20 02:56:52;;;;;;;5.43;4.03;;;;;;;;;;5046900;28;20078;-78
2022/01/20 02:59:17;;;;;;;5.60;3.75;;;;;;;;;;5026595;28;20112;-79
2022/01/20 03:01:42;;;;;;;5.85;3.97;;;;;;;;;;5022485;28;20040;-79
2022/01/20 03:04:09;;;;;;;4.95;3.88;;;;;;;;;;5027186;28;20122;-77
2022/01/20 03:06:35;;;;;;;4.35;3.58;;;;;;;;;;5010562;28;20048;-78
2022/01/20 03:09:00;;;;;;;5.00;3.85;;;;;;;;;;5043706;28;20119;-78
2022/01/20 03:11:25;;;;;;;4.97;3.47;;;;;;;;;;5045744;28;20144;-79
2022/01/20 03:13:51;;;;;;;4.25;3.40;;;;;;;;;;5028651;28;20151;-79
2022/01/20 03:16:16;;;;;;;4.28;3.33;;;;;;;;;;5056289;28;20052;-78
2022/01/20 03:18:41;;;;;;;7.18;3.67;;;;;;;;;;5039066;28;20591;-79
2022/01/20 03:21:06;;;;;;;4.68;3.25;;;;;;;;;;5046769;28;20123;-78
2022/01/20 03:23:32;;;;;;;5.43;3.40;;;;;;;;;;5010964;28;20102;-78
2022/01/20 03:25:57;;;;;;;5.07;3.97;;;;;;;;;;5026699;28;20028;-78
2022/01/20 03:28:22;;;;;;;4.97;3.22;;;;;;;;;;5056345;28;20040;-78
2022/01/20 03:30:48;;;;;;;5.47;3.75;;;;;;;;;;5010565;28;20094;-77
2022/01/20 03:33:13;;;;;;;5.57;3.58;;;;;;;;;;5033686;28;20488;-78
2022/01/20 03:35:41;;;;;;;5.40;3.40;;;;;;;;;;5017487;28;20455;-79
2022/01/20 03:38:06;;;;;;;5.53;3.53;;;;;;;;;;5032249;28;20040;-79
2022/01/20 03:40:31;;;;;;;6.35;3.67;;;;;;;;;;5063101;28;20117;-78
2022/01/20 03:42:57;;;;;;;3.55;3.22;;;;;;;;;;5052912;28;20035;-79
2022/01/20 03:45:27;;;;;;;7.68;3.65;;;;;;;;;;5050188;28;20175;-79
2022/01/20 03:47:55;;;;;;;4.13;3.45;;;;;;;;;;5016038;28;20045;-78
2022/01/20 03:53:05;;;;;;;5.47;3.70;;;;;;;;;;5045837;28;20063;-78
2022/01/20 03:55:31;;;;;;;4.38;3.50;;;;;;;;;;5047530;28;20127;-78
2022/01/20 03:57:56;;;;;;;6.07;4.13;;;;;;;;;;5033579;28;20147;-80
2022/01/20 04:00:21;;;;;;;6.43;3.75;;;;;;;;;;5050785;28;20044;-79
2022/01/20 04:02:47;;;;;;;5.35;3.83;;;;;;;;;;5052965;28;20034;-79
2022/01/20 04:05:12;;;;;;;6.20;4.18;;;;;;;;;;5034049;28;20033;-78
2022/01/20 04:07:37;;;;;;;6.05;3.67;;;;;;;;;;5017006;28;20059;-79
2022/01/20 04:10:03;;;;;;;5.60;3.95;;;;;;;;;;5033599;28;20070;-77
2022/01/20 04:12:29;;;;;;;6.93;4.38;;;;;;;;;;5038908;28;20086;-77
2022/01/20 04:14:54;;;;;;;5.70;3.80;;;;;;;;;;5051427;28;20171;-79
2022/01/20 04:17:21;;;;;;;7.65;4.68;;;;;;;;;;5033562;28;20032;-79
2022/01/20 04:19:46;;;;;;;5.47;4.07;;;;;;;;;;5051867;28;20033;-78
2022/01/20 04:22:11;;;;;;;8.95;4.05;;;;;;;;;;5034748;28;20042;-78
2022/01/20 04:24:37;;;;;;;6.07;3.95;;;;;;;;;;5049808;28;20484;-78
2022/01/20 04:27:03;;;;;;;6.88;3.92;;;;;;;;;;5063334;28;20222;-79
2022/01/20 04:29:28;;;;;;;7.63;4.20;;;;;;;;;;5017188;28;20470;-77
2022/01/20 04:31:53;;;;;;;6.20;4.05;;;;;;;;;;5051546;28;20057;-79
2022/01/20 04:34:19;;;;;;;10.20;4.72;;;;;;;;;;5052309;28;20036;-78
2022/01/20 04:36:47;;;;;;;7.25;4.88;;;;;;;;;;5028418;28;20068;-78
2022/01/20 04:39:15;;;;;;;6.38;4.25;;;;;;;;;;5047217;28;20039;-78
2022/01/20 04:41:41;;;;;;;6.32;4.57;;;;;;;;;;5033270;28;20051;-77
2022/01/20 04:44:11;;;;;;;8.80;4.88;;;;;;;;;;5018074;28;20032;-79
2022/01/20 04:59:27;;;;;;;8.27;5.20;;;;;;;;;;5047841;28;20031;-77
2022/01/20 05:01:52;;;;;;;8.35;5.53;;;;;;;;;;5025919;28;20045;-77
2022/01/20 05:04:18;;;;;;;8.88;5.20;;;;;;;;;;5046712;28;20166;-77
2022/01/20 05:06:44;;;;;;;11.18;5.40;;;;;;;;;;5022539;28;20036;-77
2022/01/20 05:09:16;;;;;;;8.68;4.68;;;;;;;;;;5028266;28;20029;-77
2022/01/20 05:11:43;;;;;;;8.50;4.93;;;;;;;;;;5028767;28;20036;-77
2022/01/20 05:14:09;;;;;;;8.10;4.75;;;;;;;;;;5028477;28;20314;-76
2022/01/20 05:16:34;;;;;;;7.97;4.57;;;;;;;;;;5043970;28;20397;-77
2022/01/20 05:18:59;;;;;;;7.40;4.57;;;;;;;;;;5028176;28;20501;-77
2022/01/20 05:21:24;;;;;;;8.95;4.85;;;;;;;;;;5058374;28;20033;-76
2022/01/20 05:23:50;;;;;;;10.80;4.65;;;;;;;;;;5028134;28;20059;-76
2022/01/20 05:26:15;;;;;;;7.95;4.60;;;;;;;;;;5010936;28;20041;-77
2022/01/20 05:28:40;;;;;;;8.63;4.63;;;;;;;;;;5027039;28;20367;-77
2022/01/20 05:31:06;;;;;;;7.10;4.85;;;;;;;;;;5029151;28;20056;-77
2022/01/20 05:33:31;;;;;;;7.82;4.97;;;;;;;;;;5010767;28;20257;-76
2022/01/20 05:35:56;;;;;;;7.70;4.82;;;;;;;;;;5043357;28;20601;-76
2022/01/20 05:38:22;;;;;;;8.25;4.95;;;;;;;;;;5046219;28;20024;-76
2022/01/20 05:40:47;;;;;;;10.48;5.50;;;;;;;;;;5056600;28;20609;-77
2022/01/20 05:43:12;;;;;;;7.82;5.15;;;;;;;;;;5028752;28;20139;-76
2022/01/20 05:45:38;;;;;;;8.07;5.20;;;;;;;;;;5028052;28;20051;-76
2022/01/20 05:48:13;;;;;;;7.25;4.93;;;;;;;;;;5028577;28;20028;-77
2022/01/20 05:50:38;;;;;;;8.60;5.32;;;;;;;;;;5044382;28;20122;-76
2022/01/20 05:53:05;;;;;;;8.00;5.10;;;;;;;;;;5058337;28;20103;-77
2022/01/20 05:55:30;;;;;;;10.27;4.90;;;;;;;;;;5010108;28;20024;-77
2022/01/20 05:57:56;;;;;;;7.20;4.80;;;;;;;;;;5046133;28;20036;-77
2022/01/20 06:00:23;;;;;;;8.27;5.30;;;;;;;;;;5044733;28;20033;-77
2022/01/20 06:05:32;;;;;;;10.52;5.32;;;;;;;;;;5029422;28;20027;-77
2022/01/20 06:07:57;;;;;;;7.45;4.80;;;;;;;;;;5045749;28;20300;-77
2022/01/20 06:10:23;;;;;;;6.88;4.53;;;;;;;;;;5012436;28;20020;-76
2022/01/20 06:12:48;;;;;;;8.18;4.60;;;;;;;;;;5056273;28;20467;-77
2022/01/20 06:15:13;;;;;;;6.28;4.47;;;;;;;;;;5045649;28;20459;-77
2022/01/20 06:17:40;;;;;;;6.38;4.38;;;;;;;;;;5028586;28;20488;-77
2022/01/20 06:20:05;;;;;;;5.28;3.97;;;;;;;;;;5011886;28;20024;-77
2022/01/20 06:22:31;;;;;;;5.38;3.83;;;;;;;;;;5046175;28;20538;-77
2022/01/20 06:24:56;;;;;;;6.95;4.43;;;;;;;;;;5013219;28;20564;-76
2022/01/20 06:27:21;;;;;;;5.38;4.07;;;;;;;;;;5028029;28;20061;-76
2022/01/20 06:29:47;;;;;;;7.32;4.05;;;;;;;;;;5058376;28;20044;-78
2022/01/20 06:32:12;;;;;;;7.85;4.15;;;;;;;;;;5026447;28;20131;-78
2022/01/20 06:34:37;;;;;;;4.45;3.55;;;;;;;;;;5046578;28;20032;-76
2022/01/20 06:37:03;;;;;;;5.20;3.50;;;;;;;;;;5040728;28;20052;-76
2022/01/20 06:39:28;;;;;;;6.32;3.63;;;;;;;;;;5046879;28;20171;-78
2022/01/20 06:41:53;;;;;;;4.70;3.22;;;;;;;;;;5045601;28;20033;-77
2022/01/20 06:44:21;;;;;;;4.90;3.53;;;;;;;;;;5045282;28;20874;-78
2022/01/20 06:46:48;;;;;;;5.40;3.53;;;;;;;;;;5026262;28;20060;-77
2022/01/20 06:49:13;;;;;;;3.47;2.67;;;;;;;;;;5045764;28;20021;-77
2022/01/20 06:51:38;;;;;;;3.88;3.13;;;;;;;;;;5027010;28;20036;-77
2022/01/20 06:54:04;;;;;;;3.95;3.13;;;;;;;;;;5045434;28;22165;-77
2022/01/20 06:56:29;;;;;;;3.00;2.67;;;;;;;;;;5026799;28;20962;-77
2022/01/20 06:58:55;;;;;;;3.58;2.75;;;;;;;;;;5047259;28;20052;-77
2022/01/20 07:01:20;;;;;;;3.60;3.17;;;;;;;;;;5024788;28;20702;-77
2022/01/20 07:03:46;;;;;;;4.75;3.17;;;;;;;;;;5043904;28;20106;-76
2022/01/20 07:06:11;;;;;;;3.72;2.60;;;;;;;;;;5044665;28;20471;-76
2022/01/20 07:08:36;;;;;;;3.45;2.85;;;;;;;;;;5046874;28;20503;-77
2022/01/20 07:11:02;;;;;;;4.55;3.28;;;;;;;;;;5046320;28;20477;-76
2022/01/20 07:13:27;;;;;;;3.67;2.90;;;;;;;;;;5044708;28;20519;-77
2022/01/20 07:15:54;;;;;;;4.95;3.35;;;;;;;;;;5055497;28;20039;-76
2022/01/20 07:18:19;;;;;;;4.32;3.15;;;;;;;;;;5045698;28;20444;-76
2022/01/20 07:20:44;;;;;;;3.38;2.83;;;;;;;;;;5011879;28;20024;-77
2022/01/20 07:23:10;;;;;;;3.78;2.60;;;;;;;;;;5044616;28;20043;-76
2022/01/20 07:25:35;;;;;;;3.17;2.83;;;;;;;;;;5044571;28;20037;-77
2022/01/20 07:28:01;;;;;;;2.63;2.42;;;;;;;;;;5044498;28;20047;-76
2022/01/20 07:30:26;;;;;;;4.32;3.08;;;;;;;;;;5043031;28;20530;-77
2022/01/20 07:32:51;;;;;;;3.50;2.50;;;;;;;;;;5045676;28;20897;-76
2022/01/20 07:35:17;;;;;;;3.30;2.70;;;;;;;;;;5055719;28;20021;-76
2022/01/20 07:37:42;;;;;;;2.70;2.50;;;;;;;;;;5044665;28;20760;-76
2022/01/20 07:40:08;;;;;;;3.00;2.67;;;;;;;;;;5027128;28;20638;-77
2022/01/20 07:42:33;;;;;;;3.13;2.50;;;;;;;;;;5026449;28;20048;-77
2022/01/20 07:44:58;;;;;;;3.25;2.47;;;;;;;;;;5026538;28;20028;-77
2022/01/20 07:47:24;;;;;;;2.92;2.30;;;;;;;;;;5001760;28;20080;-76
2022/01/20 07:49:49;;;;;;;2.35;2.05;;;;;;;;;;5035822;28;20147;-77
2022/01/20 07:52:14;;;;;;;2.53;2.30;;;;;;;;;;5020313;28;20408;-77
2022/01/20 07:54:40;;;;;;;3.45;2.08;;;;;;;;;;5018937;28;20497;-77
2022/01/20 07:57:07;;;;;;;2.13;1.92;;;;;;;;;;5003113;28;20597;-77
2022/01/20 07:59:32;;;;;;;3.05;2.30;;;;;;;;;;5020988;28;20505;-77
2022/01/20 08:01:57;;;;;;;2.40;2.13;;;;;;;;;;5000037;28;20045;-77
2022/01/20 08:04:23;;;;;;;2.28;2.10;;;;;;;;;;5015471;28;20795;-77
2022/01/20 08:06:48;;;;;;;4.20;2.30;;;;;;;;;;5032173;28;20044;-77
2022/01/20 08:09:14;;;;;;;2.20;2.00;;;;;;;;;;5019523;28;22055;-77
2022/01/20 08:11:40;;;;;;;3.38;2.22;;;;;;;;;;5020139;28;20537;-77
2022/01/20 08:14:05;;;;;;;2.40;2.10;;;;;;;;;;5035274;28;20043;-77
2022/01/20 08:16:31;;;;;;;2.33;2.13;;;;;;;;;;5036626;28;20039;-77
2022/01/20 08:18:56;;;;;;;2.55;2.28;;;;;;;;;;5039764;28;20479;-76
2022/01/20 08:21:21;;;;;;;2.60;2.00;;;;;;;;;;5025541;28;20454;-75
2022/01/20 08:23:47;;;;;;;1.80;1.70;;;;;;;;;;5042674;28;20545;-76
2022/01/20 08:26:12;;;;;;;2.55;1.67;;;;;;;;;;5040532;28;20135;-77
2022/01/20 08:28:37;;;;;;;2.38;2.17;;;;;;;;;;5024700;28;20040;-76
2022/01/20 08:31:03;;;;;;;2.10;1.90;;;;;;;;;;5006777;28;20064;-77
2022/01/20 08:33:28;;;;;;;3.58;2.00;;;;;;;;;;5015253;28;20164;-78
2022/01/20 08:35:53;;;;;;;2.42;2.22;;;;;;;;;;5022613;28;20117;-78
2022/01/20 08:38:19;;;;;;;2.15;2.00;;;;;;;;;;5008235;28;20033;-78
2022/01/20 08:40:45;;;;;;;2.60;2.40;;;;;;;;;;5041262;28;20120;-78
2022/01/20 08:43:10;;;;;;;3.33;2.60;;;;;;;;;;5024686;28;20080;-77
2022/01/20 08:45:36;;;;;;;2.75;2.13;;;;;;;;;;5022844;28;20124;-79
2022/01/20 08:48:01;;;;;;;2.20;1.70;;;;;;;;;;5003673;28;20646;-77
2022/01/20 08:50:27;;;;;;;2.38;2.17;;;;;;;;;;5022739;28;20020;-78
2022/01/20 08:52:53;;;;;;;2.25;2.05;;;;;;;;;;5023311;28;20040;-78
2022/01/20 08:55:18;;;;;;;2.30;2.10;;;;;;;;;;5018865;28;20732;-77
2022/01/20 08:57:44;;;;;;;3.10;2.20;;;;;;;;;;5028490;28;20618;-78
2022/01/20 09:00:10;;;;;;;4.40;2.38;;;;;;;;;;5039757;28;20028;-77
2022/01/20 09:02:36;;;;;;;3.45;2.78;;;;;;;;;;5039557;28;20663;-77
2022/01/20 09:05:02;;;;;;;2.50;2.30;;;;;;;;;;5042228;28;20108;-76
2022/01/20 09:07:28;;;;;;;2.35;2.15;;;;;;;;;;5010741;28;20029;-76
2022/01/20 09:09:55;;;;;;;3.22;2.30;;;;;;;;;;5032650;28;20029;-77
2022/01/20 09:17:42;;;;;;;2.75;2.47;;;;;;;;;;5016487;28;20095;-75
2022/01/20 09:20:09;;;;;;;3.13;2.78;;;;;;;;;;5044959;28;20430;-74
2022/01/20 09:22:34;;;;;;;16.92;8.40;;;;;;;;;;5024873;28;20032;-72
2022/01/20 09:24:59;;;;;;;89.85;37.95;;;;;;;;;;5047916;28;20035;-75
2022/01/20 09:27:25;;;;;;;9.35;5.55;;;;;;;;;;5031142;28;20029;-76
2022/01/20 09:29:50;;;;;;;4.18;3.28;;;;;;;;;;5050273;28;20261;-76
2022/01/20 09:32:17;;;;;;;3.92;3.53;;;;;;;;;;5032252;28;20036;-76
2022/01/20 09:34:42;;;;;;;27.48;17.55;;;;;;;;;;5050567;28;20035;-76
2022/01/20 09:37:08;;;;;;;4.75;3.55;;;;;;;;;;5017347;28;20028;-77
2022/01/20 09:39:34;;;;;;;18.00;9.07;;;;;;;;;;5031512;28;20155;-77
2022/01/20 09:41:59;;;;;;;19.15;11.38;;;;;;;;;;5031424;28;20094;-77
2022/01/20 09:44:25;;;;;;;9.57;7.13;;;;;;;;;;5031794;28;20021;-76
2022/01/20 09:46:50;;;;;;;5.53;4.88;;;;;;;;;;5031971;28;20045;-77
2022/01/20 09:49:15;;;;;;;2.88;2.47;;;;;;;;;;5049372;28;20413;-76
2022/01/20 09:51:41;;;;;;;3.75;2.83;;;;;;;;;;5032272;28;20032;-77
2022/01/20 09:54:06;;;;;;;3.65;2.63;;;;;;;;;;5028187;28;20059;-77
2022/01/20 09:56:32;;;;;;;5.30;2.30;;;;;;;;;;5010164;28;20494;-76
2022/01/20 09:58:57;;;;;;;2.80;2.50;;;;;;;;;;5029892;28;20044;-76
2022/01/20 10:01:45;;;;;;;2.50;2.30;;;;;;;;;;5045641;28;20063;-76
2022/01/20 10:04:24;;;;;;;3.10;2.83;;;;;;;;;;5029616;28;20120;-75
2022/01/20 10:07:14;;;;;;;2.90;2.60;;;;;;;;;;5014268;28;20025;-76
2022/01/20 10:09:45;;;;;;;2.40;2.20;;;;;;;;;;5047605;28;20054;-74
2022/01/20 10:12:12;;;;;;;2.85;2.55;;;;;;;;;;5048529;28;20174;-75
2022/01/20 10:14:44;;;;;;;3.70;2.55;;;;;;;;;;5030767;28;20653;-74
2022/01/20 10:17:19;;;;;;;2.63;2.42;;;;;;;;;;5030869;28;20169;-73
2022/01/20 10:19:45;;;;;;;3.13;2.83;;;;;;;;;;5048932;28;20578;-75
2022/01/20 10:22:14;;;;;;;3.42;3.13;;;;;;;;;;5030363;28;20135;-74
2022/01/20 10:24:39;;;;;;;2.88;2.67;;;;;;;;;;5046676;28;20048;-74
2022/01/20 10:27:11;;;;;;;3.40;3.10;;;;;;;;;;5028720;28;20025;-74
2022/01/20 10:29:37;;;;;;;2.80;2.60;;;;;;;;;;5030544;28;20025;-74
2022/01/20 10:32:03;;;;;;;3.50;3.10;;;;;;;;;;5016111;28;20033;-75
2022/01/20 10:34:30;;;;;;;3.05;2.75;;;;;;;;;;5029013;28;20033;-76
2022/01/20 10:37:00;;;;;;;3.25;2.95;;;;;;;;;;5046081;28;20118;-76
2022/01/20 10:39:37;;;;;;;5.07;3.10;;;;;;;;;;5048273;28;20356;-76
2022/01/20 10:42:07;;;;;;;3.20;2.90;;;;;;;;;;5030271;28;20036;-76
2022/01/20 10:44:40;;;;;;;3.47;2.70;;;;;;;;;;5028892;28;20032;-76
2022/01/20 10:47:10;;;;;;;4.18;3.20;;;;;;;;;;5029615;28;20082;-75
2022/01/20 10:49:36;;;;;;;3.40;3.08;;;;;;;;;;5046890;28;20033;-75
2022/01/20 10:52:04;;;;;;;3.20;2.90;;;;;;;;;;5048848;28;20046;-74
2022/01/20 10:54:42;;;;;;;3.88;3.08;;;;;;;;;;5049468;28;20054;-74
2022/01/20 10:57:08;;;;;;;2.95;2.67;;;;;;;;;;5031299;28;20082;-80
2022/01/20 10:59:34;;;;;;;3.25;2.95;;;;;;;;;;5032287;28;20021;-80
2022/01/20 11:02:06;;;;;;;7.28;2.85;;;;;;;;;;5031786;28;20111;-77
2022/01/20 11:04:32;;;;;;;3.63;2.97;;;;;;;;;;5037841;28;20040;-82
2022/01/20 11:07:01;;;;;;;3.30;2.88;;;;;;;;;;5015512;28;20495;-79
2022/01/20 11:09:27;;;;;;;3.30;3.00;;;;;;;;;;5051233;28;20082;-82
2022/01/20 11:11:53;;;;;;;4.13;2.97;;;;;;;;;;5009562;28;20184;-82
2022/01/20 11:14:18;;;;;;;2.67;2.47;;;;;;;;;;5007489;28;20119;-82
2022/01/20 11:16:43;;;;;;;3.40;3.10;;;;;;;;;;5014566;28;20041;-78
2022/01/20 11:19:36;;;;;;;2.92;2.63;;;;;;;;;;5012751;28;20032;-76
2022/01/20 11:22:06;;;;;;;3.10;2.72;;;;;;;;;;5022950;28;20041;-76
2022/01/20 11:24:31;;;;;;;4.40;3.15;;;;;;;;;;5013866;28;20027;-76
2022/01/20 11:26:58;;;;;;;4.32;2.97;;;;;;;;;;5010330;28;20033;-77
2022/01/20 11:29:27;;;;;;;4.00;2.75;;;;;;;;;;5013668;28;20028;-76
2022/01/20 11:31:52;;;;;;;2.90;2.70;;;;;;;;;;5013306;28;20048;-76
2022/01/20 11:34:20;;;;;;;3.15;2.60;;;;;;;;;;5033004;23;20040;-69
2022/01/20 11:36:46;;;;;;;2.97;2.78;;;;;;;;;;5062029;28;20483;-69
2022/01/20 11:39:12;;;;;;;2.80;2.55;;;;;;;;;;5047745;28;20068;-69
2022/01/20 11:41:52;;;;;;;2.72;2.53;;;;;;;;;;5056454;28;20088;-69
2022/01/20 11:44:19;;;;;;;3.33;2.70;;;;;;;;;;5040269;28;20028;-69
2022/01/20 11:46:46;;;;;;;4.10;2.92;;;;;;;;;;5038427;28;20029;-70
2022/01/20 11:49:13;;;;;;;3.05;2.75;;;;;;;;;;5039457;28;20029;-69
2022/01/20 11:51:49;;;;;;;3.92;2.70;;;;;;;;;;5036727;28;20070;-69
2022/01/20 11:54:41;;;;;;;6.80;2.90;;;;;;;;;;5057562;28;20586;-69
2022/01/20 11:57:13;;;;;;;4.72;2.83;;;;;;;;;;5038814;28;20048;-69
2022/01/20 11:59:40;;;;;;;2.67;2.47;;;;;;;;;;5059237;28;20017;-69
2022/01/20 12:02:05;;;;;;;3.13;2.72;;;;;;;;;;5038634;28;20083;-70
2022/01/20 12:04:31;;;;;;;5.70;2.85;;;;;;;;;;5038829;28;20036;-70
2022/01/20 12:06:56;;;;;;;5.07;2.85;;;;;;;;;;5060807;28;20036;-70
2022/01/20 12:09:30;;;;;;;4.25;3.10;;;;;;;;;;5042760;28;20082;-69
2022/01/20 12:11:55;;;;;;;3.17;2.67;;;;;;;;;;5055060;28;20060;-69
2022/01/20 12:14:41;;;;;;;3.10;2.70;;;;;;;;;;5023535;28;20063;-69
2022/01/20 12:17:08;;;;;;;3.42;3.08;;;;;;;;;;5039926;28;20037;-69
2022/01/20 12:19:34;;;;;;;3.28;2.97;;;;;;;;;;5056587;28;20044;-69
2022/01/20 12:21:59;;;;;;;3.38;2.95;;;;;;;;;;5023907;28;20458;-69
2022/01/20 12:24:25;;;;;;;4.55;2.40;;;;;;;;;;5038803;28;20044;-70
2022/01/20 12:26:50;;;;;;;3.47;3.00;;;;;;;;;;5060736;28;20071;-69
2022/01/20 12:29:15;;;;;;;3.22;2.70;;;;;;;;;;5042592;28;20017;-69
2022/01/20 12:31:53;;;;;;;4.57;3.25;;;;;;;;;;5054925;28;20068;-69
2022/01/20 12:34:21;;;;;;;5.25;2.92;;;;;;;;;;5040681;28;20517;-69
2022/01/20 12:36:53;;;;;;;6.22;2.47;;;;;;;;;;5056644;28;20017;-69
2022/01/20 12:39:28;;;;;;;2.60;2.40;;;;;;;;;;5060212;28;20036;-69
2022/01/20 12:41:54;;;;;;;2.70;2.50;;;;;;;;;;5023598;28;20033;-69
2022/01/20 12:44:20;;;;;;;2.70;2.47;;;;;;;;;;5021160;28;20475;-69
2022/01/20 12:46:46;;;;;;;2.95;2.65;;;;;;;;;;5041113;28;20036;-69
2022/01/20 12:49:12;;;;;;;3.08;2.28;;;;;;;;;;5040613;28;20036;-69
2022/01/20 12:51:53;;;;;;;2.80;2.50;;;;;;;;;;5058601;28;20036;-69
2022/01/20 12:54:18;;;;;;;2.85;2.20;;;;;;;;;;5039132;28;20111;-70
2022/01/20 12:56:46;;;;;;;2.83;2.22;;;;;;;;;;5055812;28;20132;-69
2022/01/20 12:59:16;;;;;;;2.67;2.20;;;;;;;;;;5057824;28;20509;-69
2022/01/20 13:01:43;;;;;;;3.90;2.88;;;;;;;;;;5058364;28;20063;-69
2022/01/20 13:04:10;;;;;;;2.40;2.20;;;;;;;;;;5038292;28;20032;-69
2022/01/20 13:06:36;;;;;;;2.22;2.03;;;;;;;;;;5057392;28;20031;-69
2022/01/20 13:09:09;;;;;;;2.72;2.10;;;;;;;;;;5040745;28;20074;-69
2022/01/20 13:11:42;;;;;;;2.53;2.10;;;;;;;;;;5038424;28;20098;-69
2022/01/20 13:14:09;;;;;;;2.35;2.15;;;;;;;;;;5057048;28;20032;-70
2022/01/20 13:16:34;;;;;;;2.60;2.20;;;;;;;;;;5022863;28;20479;-69
2022/01/20 13:19:02;;;;;;;4.30;2.10;;;;;;;;;;5058082;28;20112;-70
2022/01/20 13:21:40;;;;;;;2.35;2.10;;;;;;;;;;5039827;28;20052;-70
2022/01/20 13:24:07;;;;;;;3.83;2.17;;;;;;;;;;5038390;28;20589;-69
2022/01/20 13:26:42;;;;;;;2.40;2.20;;;;;;;;;;5038797;28;20040;-69
2022/01/20 13:29:08;;;;;;;5.75;2.38;;;;;;;;;;5040359;28;20044;-69
2022/01/20 13:31:33;;;;;;;2.85;2.58;;;;;;;;;;5037691;28;20333;-69
2022/01/20 13:34:05;;;;;;;3.13;2.33;;;;;;;;;;5056106;28;20322;-69
2022/01/20 13:36:51;;;;;;;3.45;2.45;;;;;;;;;;5041944;28;20401;-69
2022/01/20 13:39:36;;;;;;;3.30;2.55;;;;;;;;;;5029378;28;20434;-69
2022/01/20 13:45:02;;;;;;;3.58;2.67;;;;;;;;;;5040187;28;20147;-69
2022/01/20 13:45:45;;;;;;;2.42;2.22;;;;;;;;;;5057982;28;20161;-70
2022/01/20 13:48:12;;;;;;;3.15;2.38;;;;;;;;;;5020096;28;20024;-70
2022/01/20 13:50:42;;;;;;;2.53;2.28;;;;;;;;;;5057744;28;20115;-69
2022/01/20 13:53:14;;;;;;;2.33;2.13;;;;;;;;;;5039375;28;20714;-70
2022/01/20 13:55:40;;;;;;;2.47;2.25;;;;;;;;;;5058891;28;20028;-70
2022/01/20 13:58:05;;;;;;;5.07;2.22;;;;;;;;;;5039823;28;20416;-69
2022/01/20 14:00:33;;;;;;;2.58;2.38;;;;;;;;;;5037822;28;20052;-69
2022/01/20 14:02:58;;;;;;;2.30;2.10;;;;;;;;;;5056647;28;20047;-69
2022/01/20 14:05:28;;;;;;;3.58;2.20;;;;;;;;;;5039011;28;20028;-70
2022/01/20 14:07:53;;;;;;;3.63;2.08;;;;;;;;;;5040469;28;20478;-70
2022/01/20 14:10:19;;;;;;;4.55;2.45;;;;;;;;;;5038186;28;20020;-69
2022/01/20 14:12:44;;;;;;;2.45;2.20;;;;;;;;;;5057023;28;20432;-69
2022/01/20 14:15:10;;;;;;;2.33;2.13;;;;;;;;;;5044346;28;20089;-68
2022/01/20 14:17:37;;;;;;;2.58;2.38;;;;;;;;;;5064783;28;20051;-68
2022/01/20 14:20:07;;;;;;;2.78;2.15;;;;;;;;;;5035654;28;20425;-69
2022/01/20 14:22:33;;;;;;;2.42;2.20;;;;;;;;;;5050552;28;20441;-68
2022/01/20 14:24:58;;;;;;;2.40;2.20;;;;;;;;;;5068378;28;20024;-68
2022/01/20 14:27:23;;;;;;;2.63;2.40;;;;;;;;;;5056256;28;20052;-68
2022/01/20 14:29:49;;;;;;;3.97;2.33;;;;;;;;;;5036856;28;20017;-68
2022/01/20 14:32:14;;;;;;;2.70;2.35;;;;;;;;;;5036665;28;20447;-68
2022/01/20 14:34:40;;;;;;;2.50;2.22;;;;;;;;;;5050576;28;20392;-68
2022/01/20 14:37:06;;;;;;;3.25;2.22;;;;;;;;;;5040007;28;20029;-68
2022/01/20 14:39:31;;;;;;;2.10;1.90;;;;;;;;;;5055689;28;20087;-68
2022/01/20 14:41:56;;;;;;;4.78;2.67;;;;;;;;;;5060273;28;20264;-69
2022/01/20 14:44:22;;;;;;;5.60;2.28;;;;;;;;;;5033604;28;20025;-68
2022/01/20 14:46:48;;;;;;;4.35;2.53;;;;;;;;;;5054994;28;20035;-68
2022/01/20 14:49:14;;;;;;;3.60;2.38;;;;;;;;;;5056986;28;20073;-68
2022/01/20 14:51:39;;;;;;;5.93;2.10;;;;;;;;;;5036821;28;20028;-68
2022/01/20 14:54:05;;;;;;;2.47;2.25;;;;;;;;;;5046848;28;20067;-69
2022/01/20 14:56:30;;;;;;;4.88;2.58;;;;;;;;;;5049350;28;20056;-68
2022/01/20 14:58:55;;;;;;;4.65;2.53;;;;;;;;;;5051377;28;20059;-68
2022/01/20 15:01:21;;;;;;;3.47;2.50;;;;;;;;;;5054891;28;20064;-68
2022/01/20 15:03:46;;;;;;;2.80;2.50;;;;;;;;;;5028871;28;20049;-69
2022/01/20 15:06:11;;;;;;;3.83;2.40;;;;;;;;;;5054140;28;20021;-68
2022/01/20 15:08:37;;;;;;;2.67;2.47;;;;;;;;;;5033254;28;20032;-68
2022/01/20 15:11:02;;;;;;;3.20;2.50;;;;;;;;;;5052493;28;20024;-68
2022/01/20 15:13:27;;;;;;;3.20;2.55;;;;;;;;;;5052770;28;20147;-68
2022/01/20 15:15:53;;;;;;;3.95;2.70;;;;;;;;;;5034513;28;20059;-69
2022/01/20 15:18:18;;;;;;;2.97;2.67;;;;;;;;;;5056569;28;20056;-69
2022/01/20 15:20:43;;;;;;;3.22;2.40;;;;;;;;;;5054609;28;20052;-69
2022/01/20 15:23:09;;;;;;;2.85;2.47;;;;;;;;;;5036945;28;20102;-69
2022/01/20 15:25:34;;;;;;;5.95;2.88;;;;;;;;;;5039963;28;20072;-68
2022/01/20 15:28:00;;;;;;;4.60;2.53;;;;;;;;;;5036806;28;20028;-69
2022/01/20 15:30:25;;;;;;;3.60;2.40;;;;;;;;;;5036345;28;20059;-68
2022/01/20 15:32:50;;;;;;;4.30;2.70;;;;;;;;;;5049162;28;20036;-69
2022/01/20 15:35:16;;;;;;;4.57;2.50;;;;;;;;;;5056787;28;20032;-69
2022/01/20 15:37:41;;;;;;;4.63;2.40;;;;;;;;;;5036394;28;20162;-68
2022/01/20 15:40:12;;;;;;;3.42;2.78;;;;;;;;;;5054330;28;20047;-69
2022/01/20 15:42:37;;;;;;;3.15;2.67;;;;;;;;;;5050774;28;20043;-68
2022/01/20 15:45:04;;;;;;;3.38;2.70;;;;;;;;;;5055772;28;20029;-69
2022/01/20 15:47:29;;;;;;;6.10;4.45;;;;;;;;;;5034381;28;20024;-68
2022/01/20 15:49:54;;;;;;;12.98;9.00;;;;;;;;;;5050249;28;20493;-69
2022/01/20 15:52:20;;;;;;;4.65;3.92;;;;;;;;;;5057993;28;20061;-69
2022/01/20 15:54:45;;;;;;;2.97;2.78;;;;;;;;;;5039717;28;20063;-69
2022/01/20 15:57:10;;;;;;;3.00;2.78;;;;;;;;;;5040751;28;20024;-69
2022/01/20 15:59:36;;;;;;;4.95;2.72;;;;;;;;;;5048437;28;20029;-69